METAR Data
IDs: Format: Raw Decoded Include TAF

Data at: 0924 UTC 13 Aug 2022

ETSI 130820Z AUTO 07005KT 4700 // ////// 22/09 Q1017 ///